Terminal Aerodrome Forecast
Issued by NWS

Home | Current Version | Previous Version | Text Only | Print | Product List | Glossary On
Versions: 1 2 3 4 5 6 7 8 9 10 11 12 13 14 15 16
000
FTAK31 PAFA 141637 AAC
TAFAMC
TAF AMD
PAMC 141637Z 1417/1512 VRB03KT 4SM BR SCT001 BKN090
      TEMPO 1417/1419 3/4SM BR VV001
     FM142000 00000KT P6SM OVC050
     FM150800 00000KT P6SM OVC025=

USA.gov is the U.S. government's official web portal to all federal, state and local government web resources and services.